createdAt,value
2023-01-18T00:03:36.718Z,9.98
2023-01-18T00:08:39.744Z,10.57
2023-01-18T00:13:41.804Z,11.30
2023-01-18T00:18:49.731Z,11.75
2023-01-18T00:23:51.520Z,10.77
2023-01-18T00:28:56.184Z,10.23
2023-01-18T00:33:58.544Z,10.63
2023-01-18T00:39:00.742Z,9.50
2023-01-18T00:44:02.445Z,8.60
2023-01-18T00:49:04.209Z,9.70
2023-01-18T00:54:05.865Z,12.23
2023-01-18T00:59:07.717Z,9.97
2023-01-18T01:04:28.166Z,9.00
2023-01-18T01:09:29.945Z,10.07
2023-01-18T01:14:52.301Z,13.97
2023-01-18T01:20:12.695Z,11.30
2023-01-18T01:25:33.183Z,11.95
2023-01-18T01:30:34.927Z,12.95
2023-01-18T01:35:36.643Z,11.27
2023-01-18T01:40:38.414Z,12.83
2023-01-18T01:45:40.125Z,11.00
2023-01-18T01:50:42.005Z,9.57
2023-01-18T01:55:43.756Z,10.40
2023-01-18T02:00:45.631Z,11.87
2023-01-18T02:05:50.492Z,11.77
2023-01-18T02:10:52.720Z,10.80
2023-01-18T02:16:06.640Z,11.70
2023-01-18T02:21:18.547Z,21.85
2023-01-18T02:26:48.458Z,14.97
2023-01-18T02:32:13.196Z,10.43
2023-01-18T02:37:20.977Z,10.75
2023-01-18T02:42:45.579Z,10.57
2023-01-18T02:47:48.307Z,10.35
2023-01-18T02:52:52.048Z,10.35
2023-01-18T02:58:00.117Z,8.35
2023-01-18T03:03:02.352Z,7.85
2023-01-18T03:08:27.291Z,8.73
2023-01-18T03:13:58.647Z,8.18
2023-01-18T03:19:25.179Z,7.05
2023-01-18T03:24:30.259Z,8.55
2023-01-18T03:29:51.029Z,7.45
2023-01-18T03:35:07.982Z,7.43
2023-01-18T03:40:27.344Z,6.97
2023-01-18T03:45:48.129Z,8.73
2023-01-18T03:51:00.290Z,8.48
2023-01-18T03:56:08.695Z,9.85
2023-01-18T04:01:10.641Z,9.30
2023-01-18T04:06:12.429Z,9.48
2023-01-18T04:11:14.081Z,9.87
2023-01-18T04:16:16.126Z,9.27
2023-01-18T04:21:18.018Z,9.55
2023-01-18T04:26:19.897Z,8.48
2023-01-18T04:31:22.552Z,8.23
2023-01-18T04:36:24.339Z,9.25
2023-01-18T04:41:26.027Z,8.93
2023-01-18T04:46:27.851Z,9.10
2023-01-18T04:51:31.337Z,7.83
2023-01-18T04:56:33.041Z,10.57
2023-01-18T05:01:35.701Z,8.43
2023-01-18T05:06:37.453Z,8.60
2023-01-18T05:11:39.224Z,8.03
2023-01-18T05:16:41.155Z,8.15
2023-01-18T05:21:42.952Z,8.20
2023-01-18T05:26:45.054Z,8.10
2023-01-18T05:31:46.843Z,8.60
2023-01-18T05:36:49.196Z,8.38
2023-01-18T05:41:50.890Z,8.20
2023-01-18T05:46:52.578Z,7.73
2023-01-18T05:51:54.236Z,9.33
2023-01-18T05:56:56.377Z,7.43
2023-01-18T06:01:58.095Z,7.65
2023-01-18T06:06:59.964Z,7.40
2023-01-18T06:12:02.047Z,7.00
2023-01-18T06:17:04.600Z,8.00
2023-01-18T06:22:06.671Z,8.07
2023-01-18T06:27:08.403Z,7.40
2023-01-18T06:32:10.119Z,7.93
2023-01-18T06:37:12.696Z,8.00
2023-01-18T06:42:14.503Z,7.55
2023-01-18T06:47:19.807Z,7.70
2023-01-18T06:52:21.895Z,8.10
2023-01-18T06:57:23.933Z,10.90
2023-01-18T07:02:25.612Z,7.50
2023-01-18T07:07:27.891Z,7.73
2023-01-18T07:12:29.554Z,8.32
2023-01-18T07:17:31.749Z,8.13
2023-01-18T07:22:33.418Z,7.28
2023-01-18T07:27:35.135Z,7.80
2023-01-18T07:32:36.767Z,6.77
2023-01-18T07:37:38.597Z,6.43
2023-01-18T07:42:40.549Z,6.50
2023-01-18T07:47:42.733Z,7.63
2023-01-18T07:52:44.543Z,7.10
2023-01-18T07:57:46.259Z,7.30
2023-01-18T08:02:51.018Z,8.07
2023-01-18T08:07:53.790Z,8.10
2023-01-18T08:12:55.613Z,8.48
2023-01-18T08:17:57.753Z,8.27
2023-01-18T08:23:00.840Z,7.32
2023-01-18T08:28:03.642Z,8.25
2023-01-18T08:33:05.677Z,7.90
2023-01-18T08:38:07.474Z,7.65
2023-01-18T08:43:10.956Z,8.40
2023-01-18T08:48:12.548Z,9.38
2023-01-18T08:53:14.235Z,9.40
2023-01-18T08:58:15.910Z,9.50
2023-01-18T09:03:21.959Z,9.13
2023-01-18T09:08:23.698Z,9.32
2023-01-18T09:13:25.358Z,8.80
2023-01-18T09:18:27.159Z,9.97
2023-01-18T09:23:28.810Z,8.83
2023-01-18T09:28:31.565Z,9.03
2023-01-18T09:33:37.869Z,10.18
2023-01-18T09:38:44.713Z,12.45
2023-01-18T09:43:52.874Z,12.18
2023-01-18T09:48:59.323Z,14.82
2023-01-18T09:54:14.000Z,20.20
2023-01-18T09:59:32.908Z,18.13
2023-01-18T10:04:41.054Z,17.65
2023-01-18T10:09:49.403Z,13.57
2023-01-18T10:15:22.911Z,13.25
2023-01-18T10:20:44.309Z,14.40
2023-01-18T10:25:53.292Z,14.57
2023-01-18T10:31:06.325Z,14.73
2023-01-18T10:36:16.312Z,16.05
2023-01-18T10:41:28.029Z,16.02
2023-01-18T10:46:30.508Z,17.40
2023-01-18T10:51:36.362Z,17.00
2023-01-18T10:56:39.967Z,16.15
2023-01-18T11:02:01.127Z,16.58
2023-01-18T11:07:33.905Z,16.75
2023-01-18T11:12:44.236Z,15.90
2023-01-18T11:17:56.200Z,13.52
2023-01-18T11:23:14.759Z,9.87
2023-01-18T11:28:19.954Z,10.13
2023-01-18T11:33:23.957Z,9.18
2023-01-18T11:38:28.492Z,9.63
2023-01-18T11:43:33.958Z,9.40
2023-01-18T11:48:44.718Z,8.65
2023-01-18T11:53:55.680Z,9.73
2023-01-18T11:58:57.811Z,8.20
2023-01-18T12:04:03.964Z,7.40
2023-01-18T12:09:11.696Z,8.00
2023-01-18T12:14:28.593Z,6.57
2023-01-18T12:19:52.491Z,6.20
2023-01-18T12:25:00.319Z,6.60
2023-01-18T12:30:29.749Z,5.38
2023-01-18T12:35:50.610Z,5.70
2023-01-18T12:41:26.746Z,6.10
2023-01-18T12:46:43.671Z,6.18
2023-01-18T12:51:49.343Z,6.22
2023-01-18T12:56:54.816Z,6.05
2023-01-18T13:02:24.314Z,5.45
2023-01-18T13:07:32.976Z,5.80
2023-01-18T13:12:34.757Z,6.50
2023-01-18T13:17:36.735Z,5.27
2023-01-18T13:23:03.571Z,4.57
2023-01-18T13:28:18.722Z,5.00
2023-01-18T13:33:26.158Z,5.53
2023-01-18T13:38:40.994Z,5.25
2023-01-18T13:43:43.374Z,7.05
2023-01-18T13:48:46.552Z,6.38
2023-01-18T13:53:50.099Z,6.95
2023-01-18T13:59:01.718Z,7.18
2023-01-18T14:04:31.939Z,6.78
2023-01-18T14:09:43.284Z,6.22
2023-01-18T14:15:00.913Z,6.60
2023-01-18T14:20:34.170Z,6.30
2023-01-18T14:25:48.634Z,6.00
2023-01-18T14:30:54.764Z,6.32
2023-01-18T14:35:59.098Z,7.65
2023-01-18T14:41:08.440Z,7.20
2023-01-18T14:46:15.825Z,6.63
2023-01-18T14:51:22.268Z,6.53
2023-01-18T14:56:29.291Z,5.85
2023-01-18T15:01:31.301Z,6.85
2023-01-18T15:06:43.618Z,6.27
2023-01-18T15:11:45.500Z,7.22
2023-01-18T15:16:50.480Z,6.50
2023-01-18T15:21:52.238Z,6.95
2023-01-18T15:26:56.173Z,7.85
2023-01-18T15:32:02.447Z,7.55
2023-01-18T15:37:09.950Z,7.47
2023-01-18T15:42:15.300Z,7.47
2023-01-18T15:47:23.678Z,6.88
2023-01-18T15:52:43.979Z,7.70
2023-01-18T15:58:00.823Z,8.00
2023-01-18T16:03:04.457Z,7.43
2023-01-18T16:08:21.368Z,7.18
2023-01-18T16:13:26.607Z,7.80
2023-01-18T16:18:28.246Z,7.82
2023-01-18T16:23:30.024Z,7.33
2023-01-18T16:28:32.060Z,8.07
2023-01-18T16:33:33.701Z,8.40
2023-01-18T16:38:35.530Z,8.20
2023-01-18T16:43:37.219Z,7.90
2023-01-18T16:48:38.935Z,6.77
2023-01-18T16:53:40.649Z,8.13
2023-01-18T16:58:43.571Z,7.87
2023-01-18T17:03:45.604Z,7.82
2023-01-18T17:08:49.142Z,8.38
2023-01-18T17:13:50.914Z,7.88
2023-01-18T17:18:52.564Z,8.80
2023-01-18T17:23:54.327Z,8.70
2023-01-18T17:28:55.969Z,8.40
2023-01-18T17:33:58.685Z,8.87
2023-01-18T17:39:00.358Z,9.07
2023-01-18T17:44:03.168Z,9.63
2023-01-18T17:49:04.928Z,9.32
2023-01-18T17:54:13.137Z,9.20
2023-01-18T17:59:22.247Z,9.75
2023-01-18T18:04:23.911Z,10.07
2023-01-18T18:09:25.850Z,9.33
2023-01-18T18:14:30.796Z,10.00
2023-01-18T18:19:33.580Z,10.90
2023-01-18T18:24:35.243Z,10.20
2023-01-18T18:29:36.902Z,10.40
2023-01-18T18:34:38.687Z,10.13
2023-01-18T18:39:40.599Z,9.90
2023-01-18T18:44:42.267Z,9.57
2023-01-18T18:49:44.951Z,10.00
2023-01-18T18:59:49.367Z,10.95
2023-01-18T19:04:51.172Z,9.87
2023-01-18T19:09:53.344Z,9.55
2023-01-18T19:14:55.077Z,10.53
2023-01-18T19:19:56.842Z,10.00
2023-01-18T19:24:59.500Z,10.03
2023-01-18T19:30:01.227Z,10.88
2023-01-18T19:35:03.093Z,11.10
2023-01-18T19:40:05.785Z,10.63
2023-01-18T19:50:11.634Z,10.80
2023-01-18T19:55:13.792Z,12.33
2023-01-18T20:00:16.610Z,12.63
2023-01-18T20:10:20.232Z,12.88
2023-01-18T20:15:22.989Z,13.50
2023-01-18T20:25:34.656Z,13.48
2023-01-18T20:30:39.158Z,13.37
2023-01-18T20:35:42.077Z,12.45
2023-01-18T20:41:24.225Z,14.63
2023-01-18T20:47:06.138Z,13.95
2023-01-18T20:52:22.416Z,14.50
2023-01-18T20:57:37.279Z,14.23
2023-01-18T21:02:42.215Z,13.70
2023-01-18T21:07:44.139Z,14.85
2023-01-18T21:12:47.554Z,14.63
2023-01-18T21:17:51.397Z,15.75
2023-01-18T21:22:53.233Z,15.73
2023-01-18T21:27:55.300Z,15.18
2023-01-18T21:32:57.011Z,15.70
2023-01-18T21:38:02.436Z,15.38
2023-01-18T21:43:22.591Z,15.57
2023-01-18T21:48:26.560Z,16.15
2023-01-18T21:53:46.935Z,16.48
2023-01-18T21:58:55.036Z,16.00
2023-01-18T22:04:15.431Z,13.38
2023-01-18T22:09:17.789Z,12.13
2023-01-18T22:14:19.549Z,13.27
2023-01-18T22:19:21.291Z,11.57
2023-01-18T22:24:23.114Z,11.00
2023-01-18T22:29:24.907Z,9.87
2023-01-18T22:34:26.993Z,10.80
2023-01-18T22:39:28.650Z,11.18
2023-01-18T22:44:30.419Z,11.37
2023-01-18T22:49:32.173Z,10.90
2023-01-18T22:54:33.922Z,12.53
2023-01-18T22:59:35.547Z,12.57
2023-01-18T23:04:37.175Z,13.27
2023-01-18T23:09:39.027Z,14.37
2023-01-18T23:14:59.359Z,15.15
2023-01-18T23:20:01.123Z,14.85
2023-01-18T23:25:03.824Z,15.97
2023-01-18T23:35:07.828Z,16.20
2023-01-18T23:40:28.935Z,15.82
2023-01-18T23:45:49.239Z,16.63
2023-01-18T23:51:09.549Z,17.25
2023-01-18T23:56:11.328Z,16.35
